sensor_id;sensor_type;location;lat;lon;timestamp;pressure;altitude;pressure_sealevel;temperature;humidity
5138;BME280;53959;53.626;11.410;2023-04-23T00:00:27;99978.41;;;15.23;50.82
5138;BME280;53959;53.626;11.410;2023-04-23T00:02:56;99974.34;;;15.16;50.87
5138;BME280;53959;53.626;11.410;2023-04-23T00:05:26;99967.16;;;15.17;50.71
5138;BME280;53959;53.626;11.410;2023-04-23T00:07:52;99971.66;;;15.16;50.73
5138;BME280;53959;53.626;11.410;2023-04-23T00:10:18;99971.47;;;15.19;50.52
5138;BME280;53959;53.626;11.410;2023-04-23T00:12:44;99972.50;;;15.17;51.33
5138;BME280;53959;53.626;11.410;2023-04-23T00:15:11;99979.16;;;15.10;51.08
5138;BME280;53959;53.626;11.410;2023-04-23T00:17:36;99971.13;;;15.10;51.38
5138;BME280;53959;53.626;11.410;2023-04-23T00:20:02;99963.38;;;15.05;51.63
5138;BME280;53959;53.626;11.410;2023-04-23T00:22:27;99958.34;;;14.99;51.63
5138;BME280;53959;53.626;11.410;2023-04-23T00:24:52;99960.16;;;14.98;51.79
5138;BME280;53959;53.626;11.410;2023-04-23T00:27:18;99962.56;;;15.03;51.84
5138;BME280;53959;53.626;11.410;2023-04-23T00:29:45;99958.34;;;14.99;51.72
5138;BME280;53959;53.626;11.410;2023-04-23T00:32:10;99958.25;;;15.00;52.03
5138;BME280;53959;53.626;11.410;2023-04-23T00:34:36;99962.72;;;15.00;52.03
5138;BME280;53959;53.626;11.410;2023-04-23T00:37:01;99956.63;;;14.98;52.35
5138;BME280;53959;53.626;11.410;2023-04-23T00:39:30;99959.56;;;14.93;52.51
5138;BME280;53959;53.626;11.410;2023-04-23T00:41:56;99961.97;;;14.98;52.26
5138;BME280;53959;53.626;11.410;2023-04-23T00:44:22;99955.84;;;14.96;52.44
5138;BME280;53959;53.626;11.410;2023-04-23T00:46:48;99957.91;;;14.91;52.86
5138;BME280;53959;53.626;11.410;2023-04-23T00:49:14;99958.88;;;14.90;52.76
5138;BME280;53959;53.626;11.410;2023-04-23T00:51:40;99959.72;;;14.90;53.02
5138;BME280;53959;53.626;11.410;2023-04-23T00:54:06;99952.13;;;14.82;53.17
5138;BME280;53959;53.626;11.410;2023-04-23T00:56:32;99952.28;;;14.79;53.11
5138;BME280;53959;53.626;11.410;2023-04-23T00:58:58;99957.31;;;14.86;53.04
5138;BME280;53959;53.626;11.410;2023-04-23T01:01:24;99951.50;;;14.77;53.41
5138;BME280;53959;53.626;11.410;2023-04-23T01:03:50;99954.69;;;14.84;53.35
5138;BME280;53959;53.626;11.410;2023-04-23T01:06:17;99951.50;;;14.77;53.66
5138;BME280;53959;53.626;11.410;2023-04-23T01:08:44;99957.19;;;14.71;54.02
5138;BME280;53959;53.626;11.410;2023-04-23T01:11:12;99957.25;;;14.70;54.02
5138;BME280;53959;53.626;11.410;2023-04-23T01:13:38;99947.41;;;14.70;54.13
5138;BME280;53959;53.626;11.410;2023-04-23T01:16:03;99942.44;;;14.64;54.30
5138;BME280;53959;53.626;11.410;2023-04-23T01:18:29;99945.50;;;14.56;54.71
5138;BME280;53959;53.626;11.410;2023-04-23T01:20:54;99949.13;;;14.55;54.79
5138;BME280;53959;53.626;11.410;2023-04-23T01:23:20;99943.97;;;14.52;55.05
5138;BME280;53959;53.626;11.410;2023-04-23T01:25:46;99932.53;;;14.49;55.24
5138;BME280;53959;53.626;11.410;2023-04-23T01:28:12;99934.50;;;14.45;55.32
5138;BME280;53959;53.626;11.410;2023-04-23T01:30:38;99934.28;;;14.50;55.37
5138;BME280;53959;53.626;11.410;2023-04-23T01:33:04;99930.78;;;14.48;55.51
5138;BME280;53959;53.626;11.410;2023-04-23T01:35:31;99932.78;;;14.44;55.67
5138;BME280;53959;53.626;11.410;2023-04-23T01:37:58;99935.78;;;14.38;56.12
5138;BME280;53959;53.626;11.410;2023-04-23T01:40:24;99931.28;;;14.39;56.02
5138;BME280;53959;53.626;11.410;2023-04-23T01:42:50;99937.34;;;14.42;56.21
5138;BME280;53959;53.626;11.410;2023-04-23T01:45:16;99936.63;;;14.39;56.45
5138;BME280;53959;53.626;11.410;2023-04-23T01:47:45;99935.78;;;14.38;56.60
5138;BME280;53959;53.626;11.410;2023-04-23T01:50:11;99929.88;;;14.31;56.64
5138;BME280;53959;53.626;11.410;2023-04-23T01:52:36;99932.72;;;14.28;56.78
5138;BME280;53959;53.626;11.410;2023-04-23T01:55:02;99937.28;;;14.26;57.26
5138;BME280;53959;53.626;11.410;2023-04-23T01:57:28;99940.88;;;14.25;57.37
5138;BME280;53959;53.626;11.410;2023-04-23T02:00:00;99935.03;;;14.19;57.80
5138;BME280;53959;53.626;11.410;2023-04-23T02:02:38;99938.44;;;14.21;57.77
5138;BME280;53959;53.626;11.410;2023-04-23T02:05:11;99931.53;;;14.17;58.13
5138;BME280;53959;53.626;11.410;2023-04-23T02:07:37;99938.31;;;14.24;58.01
5138;BME280;53959;53.626;11.410;2023-04-23T02:10:03;99938.31;;;14.24;58.07
5138;BME280;53959;53.626;11.410;2023-04-23T02:12:29;99942.94;;;14.20;58.55
5138;BME280;53959;53.626;11.410;2023-04-23T02:14:54;99941.97;;;14.21;58.47
5138;BME280;53959;53.626;11.410;2023-04-23T02:17:20;99939.66;;;14.15;58.75
5138;BME280;53959;53.626;11.410;2023-04-23T02:19:47;99944.34;;;14.10;59.15
5138;BME280;53959;53.626;11.410;2023-04-23T02:22:14;99950.19;;;14.18;59.10
5138;BME280;53959;53.626;11.410;2023-04-23T02:24:40;99950.50;;;14.12;59.44
5138;BME280;53959;53.626;11.410;2023-04-23T02:27:07;99951.84;;;14.03;59.81
5138;BME280;53959;53.626;11.410;2023-04-23T02:29:33;99943.19;;;13.98;60.28
5138;BME280;53959;53.626;11.410;2023-04-23T02:31:58;99949.06;;;14.05;60.37
5138;BME280;53959;53.626;11.410;2023-04-23T02:34:24;99940.09;;;14.06;60.70
5138;BME280;53959;53.626;11.410;2023-04-23T02:36:49;99949.88;;;14.07;60.92
5138;BME280;53959;53.626;11.410;2023-04-23T02:39:15;99947.19;;;14.07;61.02
5138;BME280;53959;53.626;11.410;2023-04-23T02:41:40;99950.03;;;14.04;61.55
5138;BME280;53959;53.626;11.410;2023-04-23T02:44:05;99949.22;;;14.02;61.87
5138;BME280;53959;53.626;11.410;2023-04-23T02:46:31;99951.75;;;14.05;62.10
5138;BME280;53959;53.626;11.410;2023-04-23T02:48:56;99954.41;;;14.05;62.66
5138;BME280;53959;53.626;11.410;2023-04-23T02:51:22;99961.97;;;13.97;63.58
5138;BME280;53959;53.626;11.410;2023-04-23T02:53:48;99954.19;;;13.92;64.13
5138;BME280;53959;53.626;11.410;2023-04-23T02:56:13;99952.38;;;13.93;65.51
5138;BME280;53959;53.626;11.410;2023-04-23T02:58:38;99954.72;;;13.81;66.70
5138;BME280;53959;53.626;11.410;2023-04-23T03:01:04;99951.81;;;13.86;67.19
5138;BME280;53959;53.626;11.410;2023-04-23T03:03:30;99939.47;;;13.83;68.12
5138;BME280;53959;53.626;11.410;2023-04-23T03:05:57;99940.53;;;13.81;69.22
5138;BME280;53959;53.626;11.410;2023-04-23T03:08:22;99947.88;;;13.76;70.71
5138;BME280;53959;53.626;11.410;2023-04-23T03:10:48;99941.81;;;13.72;71.66
5138;BME280;53959;53.626;11.410;2023-04-23T03:13:13;99938.06;;;13.59;73.18
5138;BME280;53959;53.626;11.410;2023-04-23T03:15:39;99941.44;;;13.63;73.24
5138;BME280;53959;53.626;11.410;2023-04-23T03:18:05;99945.91;;;13.62;74.20
5138;BME280;53959;53.626;11.410;2023-04-23T03:20:33;99940.88;;;13.56;74.94
5138;BME280;53959;53.626;11.410;2023-04-23T03:22:58;99936.41;;;13.56;75.48
5138;BME280;53959;53.626;11.410;2023-04-23T03:25:23;99930.50;;;13.50;75.92
5138;BME280;53959;53.626;11.410;2023-04-23T03:27:51;99946.69;;;13.47;76.61
5138;BME280;53959;53.626;11.410;2023-04-23T03:30:17;99944.63;;;13.52;76.56
5138;BME280;53959;53.626;11.410;2023-04-23T03:32:43;99937.88;;;13.45;76.85
5138;BME280;53959;53.626;11.410;2023-04-23T03:35:10;99939.97;;;13.38;77.32
5138;BME280;53959;53.626;11.410;2023-04-23T03:37:39;99944.22;;;13.42;77.61
5138;BME280;53959;53.626;11.410;2023-04-23T03:40:05;99934.50;;;13.41;77.70
5138;BME280;53959;53.626;11.410;2023-04-23T03:42:34;99933.78;;;13.38;77.98
5138;BME280;53959;53.626;11.410;2023-04-23T03:45:00;99942.72;;;13.36;78.06
5138;BME280;53959;53.626;11.410;2023-04-23T03:47:26;99928.91;;;13.28;78.19
5138;BME280;53959;53.626;11.410;2023-04-23T03:49:53;99940.78;;;13.40;78.22
5138;BME280;53959;53.626;11.410;2023-04-23T03:52:19;99934.44;;;13.43;78.31
5138;BME280;53959;53.626;11.410;2023-04-23T03:54:45;99938.09;;;13.40;78.27
5138;BME280;53959;53.626;11.410;2023-04-23T03:57:26;99931.25;;;13.34;78.54
5138;BME280;53959;53.626;11.410;2023-04-23T03:59:58;99927.66;;;13.35;78.82
5138;BME280;53959;53.626;11.410;2023-04-23T04:02:24;99930.72;;;13.28;78.91
5138;BME280;53959;53.626;11.410;2023-04-23T04:04:51;99941.19;;;13.31;78.63
5138;BME280;53959;53.626;11.410;2023-04-23T04:07:19;99935.09;;;13.29;78.79
5138;BME280;53959;53.626;11.410;2023-04-23T04:09:45;99933.53;;;13.25;78.80
5138;BME280;53959;53.626;11.410;2023-04-23T04:12:13;99942.09;;;13.31;78.69
5138;BME280;53959;53.626;11.410;2023-04-23T04:14:41;99935.31;;;13.24;79.03
5138;BME280;53959;53.626;11.410;2023-04-23T04:17:07;99935.44;;;13.21;79.08
5138;BME280;53959;53.626;11.410;2023-04-23T04:19:33;99936.09;;;13.26;79.03
5138;BME280;53959;53.626;11.410;2023-04-23T04:21:58;99937.25;;;13.21;79.24
5138;BME280;53959;53.626;11.410;2023-04-23T04:24:26;99939.91;;;13.21;79.12
5138;BME280;53959;53.626;11.410;2023-04-23T04:26:53;99944.44;;;13.19;79.73
5138;BME280;53959;53.626;11.410;2023-04-23T04:29:18;99951.56;;;13.18;79.75
5138;BME280;53959;53.626;11.410;2023-04-23T04:31:46;99948.09;;;13.16;79.93
5138;BME280;53959;53.626;11.410;2023-04-23T04:34:11;99946.38;;;13.15;80.18
5138;BME280;53959;53.626;11.410;2023-04-23T04:36:39;99938.69;;;13.09;80.57
5138;BME280;53959;53.626;11.410;2023-04-23T04:39:05;99948.47;;;13.08;80.74
5138;BME280;53959;53.626;11.410;2023-04-23T04:41:32;99949.19;;;13.12;80.80
5138;BME280;53959;53.626;11.410;2023-04-23T04:43:57;99946.53;;;13.12;81.04
5138;BME280;53959;53.626;11.410;2023-04-23T04:46:23;99948.91;;;13.18;81.13
5138;BME280;53959;53.626;11.410;2023-04-23T04:48:50;99950.03;;;13.12;81.41
5138;BME280;53959;53.626;11.410;2023-04-23T04:51:15;99952.06;;;13.07;81.48
5138;BME280;53959;53.626;11.410;2023-04-23T04:53:41;99953.03;;;13.06;82.18
5138;BME280;53959;53.626;11.410;2023-04-23T04:56:07;99952.81;;;13.11;81.98
5138;BME280;53959;53.626;11.410;2023-04-23T04:58:32;99943.22;;;13.07;82.13
5138;BME280;53959;53.626;11.410;2023-04-23T05:00:58;99951.84;;;13.12;82.42
5138;BME280;53959;53.626;11.410;2023-04-23T05:03:24;99950.28;;;13.08;82.49
5138;BME280;53959;53.626;11.410;2023-04-23T05:05:50;99951.06;;;13.10;82.82
5138;BME280;53959;53.626;11.410;2023-04-23T05:08:16;99956.06;;;12.99;83.04
5138;BME280;53959;53.626;11.410;2023-04-23T05:10:42;99955.81;;;13.03;83.18
5138;BME280;53959;53.626;11.410;2023-04-23T05:13:08;99959.56;;;12.99;83.70
5138;BME280;53959;53.626;11.410;2023-04-23T05:15:33;99968.44;;;13.00;83.78
5138;BME280;53959;53.626;11.410;2023-04-23T05:17:58;99974.72;;;12.99;83.96
5138;BME280;53959;53.626;11.410;2023-04-23T05:20:25;99971.94;;;12.81;84.63
5138;BME280;53959;53.626;11.410;2023-04-23T05:22:51;99976.91;;;12.70;84.31
5138;BME280;53959;53.626;11.410;2023-04-23T05:25:16;99978.88;;;12.46;84.01
5138;BME280;53959;53.626;11.410;2023-04-23T05:27:42;99985.19;;;12.44;84.00
5138;BME280;53959;53.626;11.410;2023-04-23T05:30:08;99987.25;;;12.37;83.87
5138;BME280;53959;53.626;11.410;2023-04-23T05:32:34;99987.00;;;12.43;83.85
5138;BME280;53959;53.626;11.410;2023-04-23T05:35:01;99988.16;;;12.37;83.65
5138;BME280;53959;53.626;11.410;2023-04-23T05:37:30;99999.53;;;12.21;84.15
5138;BME280;53959;53.626;11.410;2023-04-23T05:39:55;99998.78;;;12.17;83.66
5138;BME280;53959;53.626;11.410;2023-04-23T05:42:22;100003.56;;;11.88;83.64
5138;BME280;53959;53.626;11.410;2023-04-23T05:44:47;100009.41;;;11.97;84.16
5138;BME280;53959;53.626;11.410;2023-04-23T05:47:13;100015.22;;;11.84;84.10
5138;BME280;53959;53.626;11.410;2023-04-23T05:49:39;100022.03;;;11.91;84.40
5138;BME280;53959;53.626;11.410;2023-04-23T05:52:05;100025.31;;;11.98;84.34
5138;BME280;53959;53.626;11.410;2023-04-23T05:54:30;100023.38;;;11.80;84.56
5138;BME280;53959;53.626;11.410;2023-04-23T05:56:56;100021.03;;;11.72;84.73
5138;BME280;53959;53.626;11.410;2023-04-23T05:59:21;100028.16;;;11.72;85.12
5138;BME280;53959;53.626;11.410;2023-04-23T06:01:47;100029.88;;;11.73;85.37
5138;BME280;53959;53.626;11.410;2023-04-23T06:04:13;100026.34;;;11.72;85.36
5138;BME280;53959;53.626;11.410;2023-04-23T06:06:39;100031.97;;;11.64;85.53
5138;BME280;53959;53.626;11.410;2023-04-23T06:09:04;100030.94;;;11.68;85.39
5138;BME280;53959;53.626;11.410;2023-04-23T06:11:31;100041.63;;;11.67;85.27
5138;BME280;53959;53.626;11.410;2023-04-23T06:13:57;100047.44;;;11.77;85.70
5138;BME280;53959;53.626;11.410;2023-04-23T06:16:23;100045.59;;;11.57;85.20
5138;BME280;53959;53.626;11.410;2023-04-23T06:18:49;100043.13;;;11.52;85.12
5138;BME280;53959;53.626;11.410;2023-04-23T06:21:15;100043.75;;;11.35;85.31
5138;BME280;53959;53.626;11.410;2023-04-23T06:23:40;100047.16;;;11.39;85.35
5138;BME280;53959;53.626;11.410;2023-04-23T06:26:05;100044.69;;;11.34;84.90
5138;BME280;53959;53.626;11.410;2023-04-23T06:28:31;100055.63;;;11.27;85.34
5138;BME280;53959;53.626;11.410;2023-04-23T06:31:25;100062.28;;;11.15;85.59
5138;BME280;53959;53.626;11.410;2023-04-23T06:33:51;100060.66;;;11.34;85.71
5138;BME280;53959;53.626;11.410;2023-04-23T06:36:16;100062.28;;;11.15;85.37
5138;BME280;53959;53.626;11.410;2023-04-23T06:38:41;100070.31;;;11.13;84.77
5138;BME280;53959;53.626;11.410;2023-04-23T06:41:09;100068.56;;;11.12;84.83
5138;BME280;53959;53.626;11.410;2023-04-23T06:43:34;100079.91;;;11.17;84.53
5138;BME280;53959;53.626;11.410;2023-04-23T06:46:18;100074.28;;;11.02;84.99
5138;BME280;53959;53.626;11.410;2023-04-23T06:48:44;100080.59;;;10.99;84.79
5138;BME280;53959;53.626;11.410;2023-04-23T06:51:09;100082.69;;;10.89;84.86
5138;BME280;53959;53.626;11.410;2023-04-23T06:53:36;100080.22;;;11.08;84.68
5138;BME280;53959;53.626;11.410;2023-04-23T06:56:01;100087.63;;;11.00;84.69
5138;BME280;53959;53.626;11.410;2023-04-23T06:58:26;100079.59;;;11.02;84.25
5138;BME280;53959;53.626;11.410;2023-04-23T07:00:57;100083.13;;;11.02;84.36
5138;BME280;53959;53.626;11.410;2023-04-23T07:03:26;100083.06;;;11.04;84.19
5138;BME280;53959;53.626;11.410;2023-04-23T07:05:52;100083.94;;;11.04;84.26
5138;BME280;53959;53.626;11.410;2023-04-23T07:08:18;100087.53;;;11.03;84.71
5138;BME280;53959;53.626;11.410;2023-04-23T07:10:45;100098.06;;;10.81;84.30
5138;BME280;53959;53.626;11.410;2023-04-23T07:13:10;100092.69;;;10.58;84.12
5138;BME280;53959;53.626;11.410;2023-04-23T07:15:36;100100.03;;;10.76;84.04
5138;BME280;53959;53.626;11.410;2023-04-23T07:18:02;100090.34;;;10.74;84.12
5138;BME280;53959;53.626;11.410;2023-04-23T07:20:27;100084.69;;;10.83;84.08
5138;BME280;53959;53.626;11.410;2023-04-23T07:22:53;100083.94;;;11.04;83.47
5138;BME280;53959;53.626;11.410;2023-04-23T07:25:18;100090.66;;;10.89;83.36
5138;BME280;53959;53.626;11.410;2023-04-23T07:27:45;100095.78;;;10.96;83.02
5138;BME280;53959;53.626;11.410;2023-04-23T07:30:11;100097.28;;;11.03;83.07
5138;BME280;53959;53.626;11.410;2023-04-23T07:32:36;100103.06;;;11.14;83.24
5138;BME280;53959;53.626;11.410;2023-04-23T07:35:02;100097.75;;;11.14;82.83
5138;BME280;53959;53.626;11.410;2023-04-23T07:37:29;100103.97;;;11.13;82.78
5138;BME280;53959;53.626;11.410;2023-04-23T07:39:54;100109.81;;;10.99;82.76
5138;BME280;53959;53.626;11.410;2023-04-23T07:42:19;100109.06;;;10.96;82.18
5138;BME280;53959;53.626;11.410;2023-04-23T07:44:45;100115.34;;;10.93;82.07
5138;BME280;53959;53.626;11.410;2023-04-23T07:47:10;100126.25;;;11.10;82.26
5138;BME280;53959;53.626;11.410;2023-04-23T07:49:35;100128.72;;;11.15;82.39
5138;BME280;53959;53.626;11.410;2023-04-23T07:52:01;100129.38;;;10.97;81.75
5138;BME280;53959;53.626;11.410;2023-04-23T07:54:26;100136.22;;;11.04;81.59
5138;BME280;53959;53.626;11.410;2023-04-23T07:56:51;100129.22;;;11.01;81.61
5138;BME280;53959;53.626;11.410;2023-04-23T07:59:17;100141.63;;;11.01;81.55
5138;BME280;53959;53.626;11.410;2023-04-23T08:01:42;100139.47;;;11.12;81.13
5138;BME280;53959;53.626;11.410;2023-04-23T08:04:07;100131.88;;;11.01;81.25
5138;BME280;53959;53.626;11.410;2023-04-23T08:06:33;100134.31;;;11.07;80.64
5138;BME280;53959;53.626;11.410;2023-04-23T08:08:59;100139.31;;;10.91;79.55
5138;BME280;53959;53.626;11.410;2023-04-23T08:11:25;100132.03;;;10.97;80.14
5138;BME280;53959;53.626;11.410;2023-04-23T08:13:53;100127.03;;;11.12;79.72
5138;BME280;53959;53.626;11.410;2023-04-23T08:16:18;100127.66;;;10.96;78.57
5138;BME280;53959;53.626;11.410;2023-04-23T08:18:44;100126.88;;;11.17;76.76
5138;BME280;53959;53.626;11.410;2023-04-23T08:21:09;100131.59;;;11.09;76.65
5138;BME280;53959;53.626;11.410;2023-04-23T08:23:37;100133.16;;;11.14;75.58
5138;BME280;53959;53.626;11.410;2023-04-23T08:26:02;100133.63;;;11.02;74.73
5138;BME280;53959;53.626;11.410;2023-04-23T08:28:27;100129.75;;;11.11;73.67
5138;BME280;53959;53.626;11.410;2023-04-23T08:30:53;100128.72;;;11.15;74.24
5138;BME280;53959;53.626;11.410;2023-04-23T08:33:18;100123.94;;;11.25;72.99
5138;BME280;53959;53.626;11.410;2023-04-23T08:35:43;100124.44;;;11.11;73.19
5138;BME280;53959;53.626;11.410;2023-04-23T08:38:09;100128.16;;;11.30;74.13
5138;BME280;53959;53.626;11.410;2023-04-23T08:40:35;100123.06;;;11.24;71.72
5138;BME280;53959;53.626;11.410;2023-04-23T08:43:09;100128.78;;;11.37;72.62
5138;BME280;53959;53.626;11.410;2023-04-23T08:45:39;100125.66;;;11.49;72.80
5138;BME280;53959;53.626;11.410;2023-04-23T08:48:06;100128.09;;;11.55;72.45
5138;BME280;53959;53.626;11.410;2023-04-23T08:50:32;100134.28;;;11.56;72.79
5138;BME280;53959;53.626;11.410;2023-04-23T08:52:57;100128.38;;;11.24;73.11
5138;BME280;53959;53.626;11.410;2023-04-23T08:55:23;100131.38;;;11.38;73.51
5138;BME280;53959;53.626;11.410;2023-04-23T08:57:50;100129.47;;;11.42;74.42
5138;BME280;53959;53.626;11.410;2023-04-23T09:00:20;100134.28;;;11.56;73.31
5138;BME280;53959;53.626;11.410;2023-04-23T09:02:47;100131.56;;;11.57;74.05
5138;BME280;53959;53.626;11.410;2023-04-23T09:05:14;100133.28;;;11.35;73.68
5138;BME280;53959;53.626;11.410;2023-04-23T09:07:40;100136.25;;;11.27;73.59
5138;BME280;53959;53.626;11.410;2023-04-23T09:10:07;100149.31;;;11.33;73.73
5138;BME280;53959;53.626;11.410;2023-04-23T09:12:37;100142.47;;;11.50;73.95
5138;BME280;53959;53.626;11.410;2023-04-23T09:15:04;100140.75;;;11.72;74.30
5138;BME280;53959;53.626;11.410;2023-04-23T09:17:36;100144.63;;;11.63;73.56
5138;BME280;53959;53.626;11.410;2023-04-23T09:20:02;100141.16;;;12.07;74.08
5138;BME280;53959;53.626;11.410;2023-04-23T09:22:47;100136.13;;;12.23;73.54
5138;BME280;53959;53.626;11.410;2023-04-23T09:25:18;100137.53;;;12.52;73.38
5138;BME280;53959;53.626;11.410;2023-04-23T09:27:44;100132.69;;;12.61;71.16
5138;BME280;53959;53.626;11.410;2023-04-23T09:30:11;100127.63;;;12.55;70.06
5138;BME280;53959;53.626;11.410;2023-04-23T09:32:39;100135.97;;;12.68;70.67
5138;BME280;53959;53.626;11.410;2023-04-23T09:35:07;100132.91;;;12.77;68.44
5138;BME280;53959;53.626;11.410;2023-04-23T09:37:33;100122.94;;;12.40;70.00
5138;BME280;53959;53.626;11.410;2023-04-23T09:40:04;100136.47;;;13.38;68.37
5138;BME280;53959;53.626;11.410;2023-04-23T09:42:34;100125.91;;;13.93;66.22
5138;BME280;53959;53.626;11.410;2023-04-23T09:45:05;100127.94;;;14.60;63.44
5138;BME280;53959;53.626;11.410;2023-04-23T09:47:32;100130.03;;;14.88;60.38
5138;BME280;53959;53.626;11.410;2023-04-23T09:49:59;100125.47;;;15.41;60.52
5138;BME280;53959;53.626;11.410;2023-04-23T09:52:25;100117.97;;;15.14;62.30
5138;BME280;53959;53.626;11.410;2023-04-23T09:54:51;100120.22;;;14.71;61.13
5138;BME280;53959;53.626;11.410;2023-04-23T09:57:17;100117.56;;;14.35;63.90
5138;BME280;53959;53.626;11.410;2023-04-23T09:59:42;100119.25;;;14.55;63.35
5138;BME280;53959;53.626;11.410;2023-04-23T10:02:09;100118.22;;;14.04;64.23
5138;BME280;53959;53.626;11.410;2023-04-23T10:04:37;100116.31;;;13.32;64.96
5138;BME280;53959;53.626;11.410;2023-04-23T10:07:03;100116.22;;;13.33;65.66
5138;BME280;53959;53.626;11.410;2023-04-23T10:09:32;100113.78;;;13.85;65.47
5138;BME280;53959;53.626;11.410;2023-04-23T10:11:59;100119.81;;;14.25;64.25
5138;BME280;53959;53.626;11.410;2023-04-23T10:14:27;100108.28;;;13.89;64.19
5138;BME280;53959;53.626;11.410;2023-04-23T10:16:58;100110.88;;;13.90;64.68
5138;BME280;53959;53.626;11.410;2023-04-23T10:19:24;100104.28;;;14.16;62.90
5138;BME280;53959;53.626;11.410;2023-04-23T10:21:57;100102.06;;;14.24;62.40
5138;BME280;53959;53.626;11.410;2023-04-23T10:24:27;100119.66;;;14.11;61.73
5138;BME280;53959;53.626;11.410;2023-04-23T10:26:59;100118.25;;;14.21;60.27
5138;BME280;53959;53.626;11.410;2023-04-23T10:29:27;100124.56;;;14.01;60.88
5138;BME280;53959;53.626;11.410;2023-04-23T10:31:55;100127.47;;;14.52;59.35
5138;BME280;53959;53.626;11.410;2023-04-23T10:34:23;100122.34;;;14.28;58.53
5138;BME280;53959;53.626;11.410;2023-04-23T10:36:50;100119.47;;;13.78;58.75
5138;BME280;53959;53.626;11.410;2023-04-23T10:39:16;100107.66;;;14.20;59.97
5138;BME280;53959;53.626;11.410;2023-04-23T10:41:43;100113.16;;;13.80;60.26
5138;BME280;53959;53.626;11.410;2023-04-23T10:44:12;100109.47;;;14.37;61.52
5138;BME280;53959;53.626;11.410;2023-04-23T10:46:52;100103.94;;;14.58;60.26
5138;BME280;53959;53.626;11.410;2023-04-23T10:49:21;100109.03;;;14.46;60.43
5138;BME280;53959;53.626;11.410;2023-04-23T10:51:47;100105.63;;;14.42;59.77
5138;BME280;53959;53.626;11.410;2023-04-23T10:54:18;100101.47;;;14.19;60.92
5138;BME280;53959;53.626;11.410;2023-04-23T10:56:43;100106.25;;;13.94;59.97
5138;BME280;53959;53.626;11.410;2023-04-23T10:59:21;100094.13;;;14.05;60.67
5138;BME280;53959;53.626;11.410;2023-04-23T11:01:48;100092.81;;;14.14;61.21
5138;BME280;53959;53.626;11.410;2023-04-23T11:04:26;100093.81;;;14.12;59.03
5138;BME280;53959;53.626;11.410;2023-04-23T11:06:55;100089.75;;;14.22;59.82
5138;BME280;53959;53.626;11.410;2023-04-23T11:09:47;100093.13;;;14.25;58.88
5138;BME280;53959;53.626;11.410;2023-04-23T11:14:52;100099.72;;;14.72;59.45
5138;BME280;53959;53.626;11.410;2023-04-23T11:20:13;100101.28;;;14.76;59.02
5138;BME280;53959;53.626;11.410;2023-04-23T11:22:42;100105.34;;;14.66;58.89
5138;BME280;53959;53.626;11.410;2023-04-23T11:25:09;100098.63;;;14.40;58.35
5138;BME280;53959;53.626;11.410;2023-04-23T11:27:40;100109.66;;;14.33;59.23
5138;BME280;53959;53.626;11.410;2023-04-23T11:30:14;100104.44;;;14.49;58.81
5138;BME280;53959;53.626;11.410;2023-04-23T11:32:43;100106.53;;;14.95;58.26
5138;BME280;53959;53.626;11.410;2023-04-23T11:35:11;100096.69;;;14.95;58.62
5138;BME280;53959;53.626;11.410;2023-04-23T11:37:38;100106.81;;;15.06;56.26
5138;BME280;53959;53.626;11.410;2023-04-23T11:40:06;100108.59;;;14.72;57.43
5138;BME280;53959;53.626;11.410;2023-04-23T11:42:42;100101.09;;;15.29;57.89
5138;BME280;53959;53.626;11.410;2023-04-23T11:45:25;100096.28;;;15.52;57.33
5138;BME280;53959;53.626;11.410;2023-04-23T11:47:52;100093.75;;;15.66;56.72
5138;BME280;53959;53.626;11.410;2023-04-23T11:50:30;100109.53;;;15.22;56.97
5138;BME280;53959;53.626;11.410;2023-04-23T11:52:57;100098.69;;;15.07;57.43
5138;BME280;53959;53.626;11.410;2023-04-23T11:55:28;100102.75;;;15.65;56.78
5138;BME280;53959;53.626;11.410;2023-04-23T11:57:53;100101.91;;;15.63;56.22
5138;BME280;53959;53.626;11.410;2023-04-23T12:00:23;100097.66;;;15.27;57.27
5138;BME280;53959;53.626;11.410;2023-04-23T12:03:00;100097.38;;;15.81;55.46
5138;BME280;53959;53.626;11.410;2023-04-23T12:13:26;100108.63;;;16.03;52.31
5138;BME280;53959;53.626;11.410;2023-04-23T12:16:03;100115.88;;;16.17;52.14
5138;BME280;53959;53.626;11.410;2023-04-23T12:18:29;100112.75;;;15.93;53.19
5138;BME280;53959;53.626;11.410;2023-04-23T12:21:10;100112.59;;;15.81;52.42
5138;BME280;53959;53.626;11.410;2023-04-23T12:23:36;100103.63;;;15.64;53.07
5138;BME280;53959;53.626;11.410;2023-04-23T12:26:02;100097.72;;;16.07;53.34
5138;BME280;53959;53.626;11.410;2023-04-23T12:28:28;100092.84;;;16.29;51.03
5138;BME280;53959;53.626;11.410;2023-04-23T12:30:58;100088.81;;;16.52;51.44
5138;BME280;53959;53.626;11.410;2023-04-23T12:33:28;100096.44;;;16.44;51.27
5138;BME280;53959;53.626;11.410;2023-04-23T12:35:54;100087.00;;;16.83;51.81
5138;BME280;53959;53.626;11.410;2023-04-23T12:38:24;100082.41;;;16.99;50.97
5138;BME280;53959;53.626;11.410;2023-04-23T12:40:51;100075.69;;;16.78;49.48
5138;BME280;53959;53.626;11.410;2023-04-23T12:43:17;100080.78;;;17.11;50.58
5138;BME280;53959;53.626;11.410;2023-04-23T12:45:42;100080.00;;;17.52;50.64
5138;BME280;53959;53.626;11.410;2023-04-23T12:48:07;100085.25;;;17.67;47.75
5138;BME280;53959;53.626;11.410;2023-04-23T12:50:33;100080.06;;;18.60;46.01
5138;BME280;53959;53.626;11.410;2023-04-23T12:52:58;100085.19;;;19.91;43.90
5138;BME280;53959;53.626;11.410;2023-04-23T12:55:23;100087.97;;;20.50;43.37
5138;BME280;53959;53.626;11.410;2023-04-23T12:57:49;100080.56;;;20.17;43.52
5138;BME280;53959;53.626;11.410;2023-04-23T13:00:14;100078.31;;;17.92;47.38
5138;BME280;53959;53.626;11.410;2023-04-23T13:02:40;100079.06;;;17.53;48.22
5138;BME280;53959;53.626;11.410;2023-04-23T13:05:05;100076.78;;;18.42;46.90
5138;BME280;53959;53.626;11.410;2023-04-23T13:07:31;100076.91;;;18.93;45.35